sensor_id;sensor_type;location;lat;lon;timestamp;P1;durP1;ratioP1;P2;durP2;ratioP2
52102;SDS011;38101;53.126;6.878;2022-12-08T00:01:45;3.85;;;1.85;;
52102;SDS011;38101;53.126;6.878;2022-12-08T00:04:11;4.15;;;1.60;;
52102;SDS011;38101;53.126;6.878;2022-12-08T00:06:41;5.18;;;2.20;;
52102;SDS011;38101;53.126;6.878;2022-12-08T00:09:30;5.55;;;1.52;;
52102;SDS011;38101;53.126;6.878;2022-12-08T00:12:00;4.35;;;1.70;;
52102;SDS011;38101;53.126;6.878;2022-12-08T00:14:33;5.00;;;1.48;;
52102;SDS011;38101;53.126;6.878;2022-12-08T00:16:59;2.90;;;1.55;;
52102;SDS011;38101;53.126;6.878;2022-12-08T00:19:27;3.15;;;1.50;;
52102;SDS011;38101;53.126;6.878;2022-12-08T00:21:53;4.25;;;1.50;;
52102;SDS011;38101;53.126;6.878;2022-12-08T00:24:20;3.85;;;1.75;;
52102;SDS011;38101;53.126;6.878;2022-12-08T00:26:49;4.88;;;1.60;;
52102;SDS011;38101;53.126;6.878;2022-12-08T00:29:15;4.63;;;1.70;;
52102;SDS011;38101;53.126;6.878;2022-12-08T00:31:41;4.70;;;1.98;;
52102;SDS011;38101;53.126;6.878;2022-12-08T00:34:07;2.60;;;1.30;;
52102;SDS011;38101;53.126;6.878;2022-12-08T00:36:33;5.32;;;2.00;;
52102;SDS011;38101;53.126;6.878;2022-12-08T00:38:58;3.78;;;1.70;;
52102;SDS011;38101;53.126;6.878;2022-12-08T00:41:25;3.25;;;1.67;;
52102;SDS011;38101;53.126;6.878;2022-12-08T00:44:12;4.38;;;1.58;;
52102;SDS011;38101;53.126;6.878;2022-12-08T00:46:39;4.07;;;1.73;;
52102;SDS011;38101;53.126;6.878;2022-12-08T00:49:06;4.13;;;1.50;;
52102;SDS011;38101;53.126;6.878;2022-12-08T00:51:32;4.05;;;1.50;;
52102;SDS011;38101;53.126;6.878;2022-12-08T00:53:59;3.45;;;1.35;;
52102;SDS011;38101;53.126;6.878;2022-12-08T00:56:25;4.50;;;1.45;;
52102;SDS011;38101;53.126;6.878;2022-12-08T00:58:51;4.65;;;1.80;;
52102;SDS011;38101;53.126;6.878;2022-12-08T01:01:17;5.32;;;1.88;;
52102;SDS011;38101;53.126;6.878;2022-12-08T01:03:43;4.30;;;1.80;;
52102;SDS011;38101;53.126;6.878;2022-12-08T01:06:09;3.35;;;1.40;;
52102;SDS011;38101;53.126;6.878;2022-12-08T01:08:35;2.13;;;1.30;;
52102;SDS011;38101;53.126;6.878;2022-12-08T01:11:02;5.82;;;1.73;;
52102;SDS011;38101;53.126;6.878;2022-12-08T01:13:29;3.17;;;1.63;;
52102;SDS011;38101;53.126;6.878;2022-12-08T01:15:55;5.00;;;1.60;;
52102;SDS011;38101;53.126;6.878;2022-12-08T01:18:21;3.00;;;1.38;;
52102;SDS011;38101;53.126;6.878;2022-12-08T01:20:46;3.28;;;1.40;;
52102;SDS011;38101;53.126;6.878;2022-12-08T01:23:12;5.80;;;1.40;;
52102;SDS011;38101;53.126;6.878;2022-12-08T01:25:38;3.08;;;1.60;;
52102;SDS011;38101;53.126;6.878;2022-12-08T01:28:03;4.25;;;1.27;;
52102;SDS011;38101;53.126;6.878;2022-12-08T01:30:29;2.30;;;1.48;;
52102;SDS011;38101;53.126;6.878;2022-12-08T01:32:55;2.72;;;1.30;;
52102;SDS011;38101;53.126;6.878;2022-12-08T01:35:21;3.40;;;1.30;;
52102;SDS011;38101;53.126;6.878;2022-12-08T01:37:48;2.90;;;1.25;;
52102;SDS011;38101;53.126;6.878;2022-12-08T01:40:14;4.05;;;1.38;;
52102;SDS011;38101;53.126;6.878;2022-12-08T01:42:40;3.22;;;1.40;;
52102;SDS011;38101;53.126;6.878;2022-12-08T01:45:12;3.58;;;1.10;;
52102;SDS011;38101;53.126;6.878;2022-12-08T01:48:02;4.05;;;1.17;;
52102;SDS011;38101;53.126;6.878;2022-12-08T01:50:32;2.42;;;1.15;;
52102;SDS011;38101;53.126;6.878;2022-12-08T01:53:00;4.95;;;1.67;;
52102;SDS011;38101;53.126;6.878;2022-12-08T01:55:38;2.55;;;1.00;;
52102;SDS011;38101;53.126;6.878;2022-12-08T01:58:27;2.22;;;0.90;;
52102;SDS011;38101;53.126;6.878;2022-12-08T02:00:56;1.70;;;0.80;;
52102;SDS011;38101;53.126;6.878;2022-12-08T02:03:29;2.78;;;1.13;;
52102;SDS011;38101;53.126;6.878;2022-12-08T02:06:01;1.90;;;0.90;;
52102;SDS011;38101;53.126;6.878;2022-12-08T02:08:27;1.83;;;1.02;;
52102;SDS011;38101;53.126;6.878;2022-12-08T02:10:55;2.40;;;1.00;;
52102;SDS011;38101;53.126;6.878;2022-12-08T02:13:23;2.05;;;0.85;;
52102;SDS011;38101;53.126;6.878;2022-12-08T02:15:57;3.03;;;0.82;;
52102;SDS011;38101;53.126;6.878;2022-12-08T02:21:10;1.52;;;0.60;;
52102;SDS011;38101;53.126;6.878;2022-12-08T02:23:57;0.52;;;0.52;;
52102;SDS011;38101;53.126;6.878;2022-12-08T02:29:50;1.30;;;0.57;;
52102;SDS011;38101;53.126;6.878;2022-12-08T02:32:23;0.95;;;0.73;;
52102;SDS011;38101;53.126;6.878;2022-12-08T02:35:12;2.42;;;0.80;;
52102;SDS011;38101;53.126;6.878;2022-12-08T02:37:54;1.48;;;0.90;;
52102;SDS011;38101;53.126;6.878;2022-12-08T02:42:55;2.67;;;0.80;;
52102;SDS011;38101;53.126;6.878;2022-12-08T02:45:35;1.60;;;0.70;;
52102;SDS011;38101;53.126;6.878;2022-12-08T02:48:27;1.92;;;0.98;;
52102;SDS011;38101;53.126;6.878;2022-12-08T02:50:54;1.27;;;0.80;;
52102;SDS011;38101;53.126;6.878;2022-12-08T02:53:20;1.42;;;1.00;;
52102;SDS011;38101;53.126;6.878;2022-12-08T02:59:17;1.92;;;0.90;;
52102;SDS011;38101;53.126;6.878;2022-12-08T03:01:47;2.97;;;0.95;;
52102;SDS011;38101;53.126;6.878;2022-12-08T03:07:31;1.85;;;1.10;;
52102;SDS011;38101;53.126;6.878;2022-12-08T03:10:11;2.65;;;1.10;;
52102;SDS011;38101;53.126;6.878;2022-12-08T03:12:49;2.00;;;1.00;;
52102;SDS011;38101;53.126;6.878;2022-12-08T03:15:21;2.95;;;1.25;;
52102;SDS011;38101;53.126;6.878;2022-12-08T03:17:51;2.72;;;1.05;;
52102;SDS011;38101;53.126;6.878;2022-12-08T03:20:21;2.80;;;1.02;;
52102;SDS011;38101;53.126;6.878;2022-12-08T03:22:49;1.10;;;0.80;;
52102;SDS011;38101;53.126;6.878;2022-12-08T03:25:21;1.30;;;0.75;;
52102;SDS011;38101;53.126;6.878;2022-12-08T03:27:50;1.10;;;1.00;;
52102;SDS011;38101;53.126;6.878;2022-12-08T03:30:16;1.67;;;0.90;;
52102;SDS011;38101;53.126;6.878;2022-12-08T03:32:46;2.03;;;0.88;;
52102;SDS011;38101;53.126;6.878;2022-12-08T03:35:28;0.60;;;0.60;;
52102;SDS011;38101;53.126;6.878;2022-12-08T03:38:03;1.52;;;0.80;;
52102;SDS011;38101;53.126;6.878;2022-12-08T03:40:31;1.58;;;0.65;;
52102;SDS011;38101;53.126;6.878;2022-12-08T03:42:57;0.63;;;0.63;;
52102;SDS011;38101;53.126;6.878;2022-12-08T03:45:23;3.10;;;0.80;;
52102;SDS011;38101;53.126;6.878;2022-12-08T03:47:49;2.28;;;0.80;;
52102;SDS011;38101;53.126;6.878;2022-12-08T03:50:15;0.65;;;0.65;;
52102;SDS011;38101;53.126;6.878;2022-12-08T03:52:41;2.00;;;1.00;;
52102;SDS011;38101;53.126;6.878;2022-12-08T03:55:07;1.83;;;0.90;;
52102;SDS011;38101;53.126;6.878;2022-12-08T03:57:33;3.15;;;0.80;;
52102;SDS011;38101;53.126;6.878;2022-12-08T03:59:59;2.83;;;0.90;;
52102;SDS011;38101;53.126;6.878;2022-12-08T04:02:24;2.42;;;0.73;;
52102;SDS011;38101;53.126;6.878;2022-12-08T04:04:50;1.73;;;0.88;;
52102;SDS011;38101;53.126;6.878;2022-12-08T04:07:16;3.28;;;0.88;;
52102;SDS011;38101;53.126;6.878;2022-12-08T04:09:42;1.23;;;0.73;;
52102;SDS011;38101;53.126;6.878;2022-12-08T04:12:09;1.77;;;0.77;;
52102;SDS011;38101;53.126;6.878;2022-12-08T04:14:34;1.85;;;1.02;;
52102;SDS011;38101;53.126;6.878;2022-12-08T04:17:00;2.35;;;0.60;;
52102;SDS011;38101;53.126;6.878;2022-12-08T04:19:26;0.93;;;0.55;;
52102;SDS011;38101;53.126;6.878;2022-12-08T04:21:52;2.30;;;0.70;;
52102;SDS011;38101;53.126;6.878;2022-12-08T04:24:17;0.90;;;0.68;;
52102;SDS011;38101;53.126;6.878;2022-12-08T04:26:43;1.83;;;0.80;;
52102;SDS011;38101;53.126;6.878;2022-12-08T04:29:10;1.13;;;0.40;;
52102;SDS011;38101;53.126;6.878;2022-12-08T04:31:35;1.50;;;0.60;;
52102;SDS011;38101;53.126;6.878;2022-12-08T04:34:01;2.15;;;0.52;;
52102;SDS011;38101;53.126;6.878;2022-12-08T04:36:27;1.52;;;0.40;;
52102;SDS011;38101;53.126;6.878;2022-12-08T04:38:53;0.65;;;0.47;;
52102;SDS011;38101;53.126;6.878;2022-12-08T04:41:19;1.75;;;0.60;;
52102;SDS011;38101;53.126;6.878;2022-12-08T04:43:44;1.70;;;0.60;;
52102;SDS011;38101;53.126;6.878;2022-12-08T04:46:10;0.40;;;0.40;;
52102;SDS011;38101;53.126;6.878;2022-12-08T04:48:37;0.43;;;0.35;;
52102;SDS011;38101;53.126;6.878;2022-12-08T04:51:03;2.65;;;0.50;;
52102;SDS011;38101;53.126;6.878;2022-12-08T04:53:29;1.30;;;0.50;;
52102;SDS011;38101;53.126;6.878;2022-12-08T04:55:55;1.02;;;0.40;;
52102;SDS011;38101;53.126;6.878;2022-12-08T04:58:21;0.60;;;0.47;;
52102;SDS011;38101;53.126;6.878;2022-12-08T05:00:47;2.03;;;0.52;;
52102;SDS011;38101;53.126;6.878;2022-12-08T05:03:14;1.33;;;0.65;;
52102;SDS011;38101;53.126;6.878;2022-12-08T05:05:41;0.30;;;0.30;;
52102;SDS011;38101;53.126;6.878;2022-12-08T05:08:08;1.85;;;0.52;;
52102;SDS011;38101;53.126;6.878;2022-12-08T05:10:34;0.50;;;0.30;;
52102;SDS011;38101;53.126;6.878;2022-12-08T05:13:00;1.13;;;0.65;;
52102;SDS011;38101;53.126;6.878;2022-12-08T05:15:26;2.05;;;0.90;;
52102;SDS011;38101;53.126;6.878;2022-12-08T05:17:52;2.85;;;0.50;;
52102;SDS011;38101;53.126;6.878;2022-12-08T05:20:17;0.95;;;0.60;;
52102;SDS011;38101;53.126;6.878;2022-12-08T05:22:43;1.02;;;0.55;;
52102;SDS011;38101;53.126;6.878;2022-12-08T05:25:09;1.23;;;0.80;;
52102;SDS011;38101;53.126;6.878;2022-12-08T05:27:35;1.98;;;0.80;;
52102;SDS011;38101;53.126;6.878;2022-12-08T05:30:01;1.30;;;0.70;;
52102;SDS011;38101;53.126;6.878;2022-12-08T05:32:27;1.35;;;0.60;;
52102;SDS011;38101;53.126;6.878;2022-12-08T05:34:52;1.50;;;0.90;;
52102;SDS011;38101;53.126;6.878;2022-12-08T05:37:18;1.33;;;0.40;;
52102;SDS011;38101;53.126;6.878;2022-12-08T05:39:44;0.93;;;0.55;;
52102;SDS011;38101;53.126;6.878;2022-12-08T05:42:10;2.90;;;0.93;;
52102;SDS011;38101;53.126;6.878;2022-12-08T05:44:35;1.05;;;0.60;;
52102;SDS011;38101;53.126;6.878;2022-12-08T05:47:01;0.65;;;0.55;;
52102;SDS011;38101;53.126;6.878;2022-12-08T05:49:27;1.05;;;0.43;;
52102;SDS011;38101;53.126;6.878;2022-12-08T05:51:53;1.80;;;0.63;;
52102;SDS011;38101;53.126;6.878;2022-12-08T05:54:18;1.25;;;0.60;;
52102;SDS011;38101;53.126;6.878;2022-12-08T05:56:44;1.42;;;0.60;;
52102;SDS011;38101;53.126;6.878;2022-12-08T05:59:10;2.03;;;0.73;;
52102;SDS011;38101;53.126;6.878;2022-12-08T06:01:35;1.75;;;0.75;;
52102;SDS011;38101;53.126;6.878;2022-12-08T06:04:02;1.55;;;0.50;;
52102;SDS011;38101;53.126;6.878;2022-12-08T06:06:28;1.33;;;0.70;;
52102;SDS011;38101;53.126;6.878;2022-12-08T06:08:55;1.05;;;0.80;;
52102;SDS011;38101;53.126;6.878;2022-12-08T06:11:21;0.95;;;0.60;;
52102;SDS011;38101;53.126;6.878;2022-12-08T06:13:49;1.77;;;0.63;;
52102;SDS011;38101;53.126;6.878;2022-12-08T06:16:16;1.35;;;0.63;;
52102;SDS011;38101;53.126;6.878;2022-12-08T06:18:43;1.48;;;0.90;;
52102;SDS011;38101;53.126;6.878;2022-12-08T06:21:09;2.97;;;0.95;;
52102;SDS011;38101;53.126;6.878;2022-12-08T06:23:36;2.22;;;1.10;;
52102;SDS011;38101;53.126;6.878;2022-12-08T06:26:03;2.38;;;0.80;;
52102;SDS011;38101;53.126;6.878;2022-12-08T06:28:31;1.25;;;0.95;;
52102;SDS011;38101;53.126;6.878;2022-12-08T06:30:58;2.15;;;1.00;;
52102;SDS011;38101;53.126;6.878;2022-12-08T06:33:24;1.58;;;1.00;;
52102;SDS011;38101;53.126;6.878;2022-12-08T06:35:50;1.05;;;0.70;;
52102;SDS011;38101;53.126;6.878;2022-12-08T06:38:17;2.70;;;1.10;;
52102;SDS011;38101;53.126;6.878;2022-12-08T06:40:43;2.05;;;1.17;;
52102;SDS011;38101;53.126;6.878;2022-12-08T06:43:09;1.13;;;0.80;;
52102;SDS011;38101;53.126;6.878;2022-12-08T06:45:34;1.88;;;1.25;;
52102;SDS011;38101;53.126;6.878;2022-12-08T06:48:01;2.00;;;1.38;;
52102;SDS011;38101;53.126;6.878;2022-12-08T06:50:27;1.60;;;1.10;;
52102;SDS011;38101;53.126;6.878;2022-12-08T06:52:53;2.72;;;0.98;;
52102;SDS011;38101;53.126;6.878;2022-12-08T06:55:18;0.93;;;0.80;;
52102;SDS011;38101;53.126;6.878;2022-12-08T06:57:44;1.40;;;0.90;;
52102;SDS011;38101;53.126;6.878;2022-12-08T07:00:10;1.45;;;0.90;;
52102;SDS011;38101;53.126;6.878;2022-12-08T07:02:37;1.88;;;1.15;;
52102;SDS011;38101;53.126;6.878;2022-12-08T07:05:02;1.83;;;0.60;;
52102;SDS011;38101;53.126;6.878;2022-12-08T07:07:28;1.40;;;0.70;;
52102;SDS011;38101;53.126;6.878;2022-12-08T07:09:54;2.30;;;1.08;;
52102;SDS011;38101;53.126;6.878;2022-12-08T07:12:20;1.48;;;1.05;;
52102;SDS011;38101;53.126;6.878;2022-12-08T07:14:46;1.85;;;0.60;;
52102;SDS011;38101;53.126;6.878;2022-12-08T07:17:11;1.15;;;0.88;;
52102;SDS011;38101;53.126;6.878;2022-12-08T07:19:37;1.30;;;1.08;;
52102;SDS011;38101;53.126;6.878;2022-12-08T07:22:03;1.10;;;0.73;;
52102;SDS011;38101;53.126;6.878;2022-12-08T07:24:29;3.40;;;0.90;;
52102;SDS011;38101;53.126;6.878;2022-12-08T07:26:54;2.67;;;0.95;;
52102;SDS011;38101;53.126;6.878;2022-12-08T07:29:20;2.00;;;0.93;;
52102;SDS011;38101;53.126;6.878;2022-12-08T07:31:46;2.35;;;0.70;;
52102;SDS011;38101;53.126;6.878;2022-12-08T07:34:11;2.03;;;0.55;;
52102;SDS011;38101;53.126;6.878;2022-12-08T07:36:37;1.98;;;0.77;;
52102;SDS011;38101;53.126;6.878;2022-12-08T07:39:03;1.67;;;0.90;;
52102;SDS011;38101;53.126;6.878;2022-12-08T07:41:29;1.70;;;0.80;;
52102;SDS011;38101;53.126;6.878;2022-12-08T07:43:55;3.17;;;0.90;;
52102;SDS011;38101;53.126;6.878;2022-12-08T07:46:22;1.52;;;0.88;;
52102;SDS011;38101;53.126;6.878;2022-12-08T07:48:49;3.83;;;1.30;;
52102;SDS011;38101;53.126;6.878;2022-12-08T07:51:16;3.33;;;1.08;;
52102;SDS011;38101;53.126;6.878;2022-12-08T07:53:43;1.25;;;0.80;;
52102;SDS011;38101;53.126;6.878;2022-12-08T07:56:11;1.55;;;0.77;;
52102;SDS011;38101;53.126;6.878;2022-12-08T07:58:38;1.05;;;0.93;;
52102;SDS011;38101;53.126;6.878;2022-12-08T08:01:04;1.55;;;0.90;;
52102;SDS011;38101;53.126;6.878;2022-12-08T08:03:30;2.97;;;1.33;;
52102;SDS011;38101;53.126;6.878;2022-12-08T08:06:03;6.00;;;1.92;;
52102;SDS011;38101;53.126;6.878;2022-12-08T08:08:29;2.05;;;1.35;;
52102;SDS011;38101;53.126;6.878;2022-12-08T08:10:55;3.55;;;1.80;;
52102;SDS011;38101;53.126;6.878;2022-12-08T08:13:21;2.47;;;1.33;;
52102;SDS011;38101;53.126;6.878;2022-12-08T08:15:47;3.25;;;1.65;;
52102;SDS011;38101;53.126;6.878;2022-12-08T08:18:13;3.10;;;1.77;;
52102;SDS011;38101;53.126;6.878;2022-12-08T08:20:39;5.13;;;2.10;;
52102;SDS011;38101;53.126;6.878;2022-12-08T08:23:05;3.60;;;1.80;;
52102;SDS011;38101;53.126;6.878;2022-12-08T08:25:30;7.18;;;1.90;;
52102;SDS011;38101;53.126;6.878;2022-12-08T08:27:56;3.60;;;1.35;;
52102;SDS011;38101;53.126;6.878;2022-12-08T08:30:22;3.40;;;1.60;;
52102;SDS011;38101;53.126;6.878;2022-12-08T08:32:48;3.92;;;1.90;;
52102;SDS011;38101;53.126;6.878;2022-12-08T08:35:14;2.97;;;1.80;;
52102;SDS011;38101;53.126;6.878;2022-12-08T08:37:39;4.38;;;2.28;;
52102;SDS011;38101;53.126;6.878;2022-12-08T08:40:06;2.92;;;2.10;;
52102;SDS011;38101;53.126;6.878;2022-12-08T08:42:32;4.53;;;2.22;;
52102;SDS011;38101;53.126;6.878;2022-12-08T08:44:58;14.82;;;3.28;;
52102;SDS011;38101;53.126;6.878;2022-12-08T08:47:23;6.65;;;2.65;;
52102;SDS011;38101;53.126;6.878;2022-12-08T08:49:49;4.47;;;2.22;;
52102;SDS011;38101;53.126;6.878;2022-12-08T08:52:15;3.90;;;2.08;;
52102;SDS011;38101;53.126;6.878;2022-12-08T08:54:41;3.13;;;1.88;;
52102;SDS011;38101;53.126;6.878;2022-12-08T08:57:07;3.33;;;1.67;;
52102;SDS011;38101;53.126;6.878;2022-12-08T08:59:33;3.20;;;2.08;;
52102;SDS011;38101;53.126;6.878;2022-12-08T09:01:58;3.28;;;1.90;;
52102;SDS011;38101;53.126;6.878;2022-12-08T09:04:24;3.83;;;2.00;;
52102;SDS011;38101;53.126;6.878;2022-12-08T09:06:50;5.07;;;2.30;;
52102;SDS011;38101;53.126;6.878;2022-12-08T09:09:16;4.85;;;2.10;;
52102;SDS011;38101;53.126;6.878;2022-12-08T09:11:42;6.57;;;2.38;;
52102;SDS011;38101;53.126;6.878;2022-12-08T09:14:11;4.45;;;2.58;;
52102;SDS011;38101;53.126;6.878;2022-12-08T09:16:39;3.88;;;1.90;;
52102;SDS011;38101;53.126;6.878;2022-12-08T09:19:05;2.95;;;1.85;;
52102;SDS011;38101;53.126;6.878;2022-12-08T09:21:31;4.05;;;2.17;;
52102;SDS011;38101;53.126;6.878;2022-12-08T09:23:57;3.83;;;1.80;;
52102;SDS011;38101;53.126;6.878;2022-12-08T09:26:24;3.30;;;2.28;;
52102;SDS011;38101;53.126;6.878;2022-12-08T09:28:51;4.13;;;1.80;;
52102;SDS011;38101;53.126;6.878;2022-12-08T09:31:19;3.22;;;1.85;;
52102;SDS011;38101;53.126;6.878;2022-12-08T09:33:46;2.15;;;1.52;;
52102;SDS011;38101;53.126;6.878;2022-12-08T09:36:12;3.17;;;1.95;;
52102;SDS011;38101;53.126;6.878;2022-12-08T09:38:38;4.60;;;1.80;;
52102;SDS011;38101;53.126;6.878;2022-12-08T09:41:13;4.68;;;1.70;;
52102;SDS011;38101;53.126;6.878;2022-12-08T09:44:02;7.05;;;2.03;;
52102;SDS011;38101;53.126;6.878;2022-12-08T09:46:46;5.80;;;2.40;;
52102;SDS011;38101;53.126;6.878;2022-12-08T09:49:15;2.45;;;1.52;;
52102;SDS011;38101;53.126;6.878;2022-12-08T09:51:47;4.80;;;2.22;;
52102;SDS011;38101;53.126;6.878;2022-12-08T09:54:17;5.80;;;2.20;;
52102;SDS011;38101;53.126;6.878;2022-12-08T09:56:52;3.50;;;2.30;;
52102;SDS011;38101;53.126;6.878;2022-12-08T09:59:24;4.63;;;2.00;;
52102;SDS011;38101;53.126;6.878;2022-12-08T10:01:56;5.55;;;1.92;;
52102;SDS011;38101;53.126;6.878;2022-12-08T10:04:23;4.57;;;1.83;;
52102;SDS011;38101;53.126;6.878;2022-12-08T10:09:37;4.35;;;2.08;;
52102;SDS011;38101;53.126;6.878;2022-12-08T10:20:00;5.10;;;2.05;;
52102;SDS011;38101;53.126;6.878;2022-12-08T10:22:31;3.72;;;1.90;;
52102;SDS011;38101;53.126;6.878;2022-12-08T10:24:59;3.50;;;1.60;;
52102;SDS011;38101;53.126;6.878;2022-12-08T10:27:38;3.80;;;2.15;;
52102;SDS011;38101;53.126;6.878;2022-12-08T10:30:10;6.28;;;1.90;;
52102;SDS011;38101;53.126;6.878;2022-12-08T10:32:37;4.90;;;2.10;;
52102;SDS011;38101;53.126;6.878;2022-12-08T10:35:16;8.32;;;2.10;;
52102;SDS011;38101;53.126;6.878;2022-12-08T10:37:56;5.13;;;2.35;;
52102;SDS011;38101;53.126;6.878;2022-12-08T10:40:26;5.78;;;2.58;;
52102;SDS011;38101;53.126;6.878;2022-12-08T10:42:54;4.82;;;2.70;;
52102;SDS011;38101;53.126;6.878;2022-12-08T10:45:23;4.45;;;2.20;;
52102;SDS011;38101;53.126;6.878;2022-12-08T10:50:34;4.93;;;2.53;;
52102;SDS011;38101;53.126;6.878;2022-12-08T10:55:38;5.55;;;2.33;;
52102;SDS011;38101;53.126;6.878;2022-12-08T10:58:23;4.30;;;1.92;;
52102;SDS011;38101;53.126;6.878;2022-12-08T11:00:57;6.03;;;2.15;;
52102;SDS011;38101;53.126;6.878;2022-12-08T11:03:38;4.37;;;2.10;;
52102;SDS011;38101;53.126;6.878;2022-12-08T11:08:55;4.53;;;1.80;;
52102;SDS011;38101;53.126;6.878;2022-12-08T11:11:36;2.88;;;1.88;;
52102;SDS011;38101;53.126;6.878;2022-12-08T11:14:05;4.10;;;1.65;;
52102;SDS011;38101;53.126;6.878;2022-12-08T11:16:32;3.30;;;1.77;;
52102;SDS011;38101;53.126;6.878;2022-12-08T11:18:58;5.63;;;2.00;;
52102;SDS011;38101;53.126;6.878;2022-12-08T11:21:37;4.07;;;1.80;;
52102;SDS011;38101;53.126;6.878;2022-12-08T11:24:09;3.28;;;1.73;;
52102;SDS011;38101;53.126;6.878;2022-12-08T11:26:52;5.05;;;2.13;;
52102;SDS011;38101;53.126;6.878;2022-12-08T11:29:33;4.00;;;1.80;;
52102;SDS011;38101;53.126;6.878;2022-12-08T11:32:20;4.95;;;1.80;;
52102;SDS011;38101;53.126;6.878;2022-12-08T11:34:50;5.05;;;1.80;;
52102;SDS011;38101;53.126;6.878;2022-12-08T11:37:40;4.53;;;1.90;;
52102;SDS011;38101;53.126;6.878;2022-12-08T11:40:29;3.42;;;1.90;;
52102;SDS011;38101;53.126;6.878;2022-12-08T11:45:29;2.97;;;1.73;;
52102;SDS011;38101;53.126;6.878;2022-12-08T11:50:28;4.72;;;2.03;;
52102;SDS011;38101;53.126;6.878;2022-12-08T11:53:08;3.85;;;1.77;;
52102;SDS011;38101;53.126;6.878;2022-12-08T11:58:23;2.47;;;1.33;;
52102;SDS011;38101;53.126;6.878;2022-12-08T12:00:55;4.75;;;1.55;;
52102;SDS011;38101;53.126;6.878;2022-12-08T12:09:05;2.92;;;1.60;;
52102;SDS011;38101;53.126;6.878;2022-12-08T12:23:08;4.35;;;1.83;;
52102;SDS011;38101;53.126;6.878;2022-12-08T12:26:07;5.15;;;1.95;;
52102;SDS011;38101;53.126;6.878;2022-12-08T12:28:48;5.80;;;1.80;;
52102;SDS011;38101;53.126;6.878;2022-12-08T12:31:22;5.20;;;1.77;;
52102;SDS011;38101;53.126;6.878;2022-12-08T12:33:50;5.72;;;1.90;;
52102;SDS011;38101;53.126;6.878;2022-12-08T12:36:21;5.47;;;1.92;;
52102;SDS011;38101;53.126;6.878;2022-12-08T12:38:49;4.30;;;1.83;;
52102;SDS011;38101;53.126;6.878;2022-12-08T12:52:06;2.80;;;1.23;;
52102;SDS011;38101;53.126;6.878;2022-12-08T12:57:22;5.70;;;1.58;;
52102;SDS011;38101;53.126;6.878;2022-12-08T13:02:22;3.63;;;1.15;;
52102;SDS011;38101;53.126;6.878;2022-12-08T13:07:31;3.08;;;1.20;;
52102;SDS011;38101;53.126;6.878;2022-12-08T13:12:38;6.35;;;1.75;;
52102;SDS011;38101;53.126;6.878;2022-12-08T13:15:04;2.58;;;1.30;;
52102;SDS011;38101;53.126;6.878;2022-12-08T13:17:32;5.75;;;1.73;;
52102;SDS011;38101;53.126;6.878;2022-12-08T13:20:02;3.60;;;1.20;;
52102;SDS011;38101;53.126;6.878;2022-12-08T13:28:25;4.28;;;1.60;;
52102;SDS011;38101;53.126;6.878;2022-12-08T13:36:00;5.65;;;1.85;;
52102;SDS011;38101;53.126;6.878;2022-12-08T13:38:52;4.13;;;2.03;;
52102;SDS011;38101;53.126;6.878;2022-12-08T13:41:21;5.22;;;1.77;;
52102;SDS011;38101;53.126;6.878;2022-12-08T13:44:00;3.17;;;1.40;;
52102;SDS011;38101;53.126;6.878;2022-12-08T13:46:50;4.65;;;1.70;;
52102;SDS011;38101;53.126;6.878;2022-12-08T13:49:22;3.92;;;1.60;;
52102;SDS011;38101;53.126;6.878;2022-12-08T13:51:51;4.40;;;2.00;;
52102;SDS011;38101;53.126;6.878;2022-12-08T13:56:50;5.03;;;1.80;;
52102;SDS011;38101;53.126;6.878;2022-12-08T14:01:48;4.38;;;1.70;;
52102;SDS011;38101;53.126;6.878;2022-12-08T14:04:16;4.05;;;1.70;;
52102;SDS011;38101;53.126;6.878;2022-12-08T14:06:57;3.90;;;1.77;;
52102;SDS011;38101;53.126;6.878;2022-12-08T14:09:32;4.10;;;1.98;;
52102;SDS011;38101;53.126;6.878;2022-12-08T14:12:00;3.70;;;1.75;;
52102;SDS011;38101;53.126;6.878;2022-12-08T14:14:48;3.85;;;1.75;;
52102;SDS011;38101;53.126;6.878;2022-12-08T14:17:19;5.82;;;2.00;;
52102;SDS011;38101;53.126;6.878;2022-12-08T14:22:36;6.32;;;2.08;;
52102;SDS011;38101;53.126;6.878;2022-12-08T14:25:03;4.60;;;2.40;;
52102;SDS011;38101;53.126;6.878;2022-12-08T14:27:32;5.68;;;1.92;;
52102;SDS011;38101;53.126;6.878;2022-12-08T14:30:00;5.15;;;1.92;;
52102;SDS011;38101;53.126;6.878;2022-12-08T14:32:54;2.78;;;1.65;;
52102;SDS011;38101;53.126;6.878;2022-12-08T14:35:32;11.95;;;2.75;;
52102;SDS011;38101;53.126;6.878;2022-12-08T14:38:01;4.65;;;1.80;;
52102;SDS011;38101;53.126;6.878;2022-12-08T14:40:31;2.55;;;2.13;;
52102;SDS011;38101;53.126;6.878;2022-12-08T14:45:45;13.75;;;3.22;;
52102;SDS011;38101;53.126;6.878;2022-12-08T14:56:25;2.47;;;1.63;;
52102;SDS011;38101;53.126;6.878;2022-12-08T14:59:14;3.38;;;1.42;;
52102;SDS011;38101;53.126;6.878;2022-12-08T15:01:47;2.45;;;1.45;;
52102;SDS011;38101;53.126;6.878;2022-12-08T15:04:35;7.32;;;3.20;;
52102;SDS011;38101;53.126;6.878;2022-12-08T15:07:06;5.82;;;3.05;;
52102;SDS011;38101;53.126;6.878;2022-12-08T15:09:46;7.22;;;3.20;;
52102;SDS011;38101;53.126;6.878;2022-12-08T15:14:52;6.82;;;2.85;;
52102;SDS011;38101;53.126;6.878;2022-12-08T15:18:10;5.45;;;3.13;;
52102;SDS011;38101;53.126;6.878;2022-12-08T15:20:33;7.20;;;3.42;;
52102;SDS011;38101;53.126;6.878;2022-12-08T15:23:03;5.78;;;3.50;;
52102;SDS011;38101;53.126;6.878;2022-12-08T15:25:29;6.40;;;3.58;;
52102;SDS011;38101;53.126;6.878;2022-12-08T15:27:56;7.15;;;3.00;;
52102;SDS011;38101;53.126;6.878;2022-12-08T15:30:22;6.00;;;3.78;;
52102;SDS011;38101;53.126;6.878;2022-12-08T15:32:51;7.43;;;4.20;;
52102;SDS011;38101;53.126;6.878;2022-12-08T15:35:18;6.65;;;3.75;;
52102;SDS011;38101;53.126;6.878;2022-12-08T15:37:44;6.75;;;3.60;;
52102;SDS011;38101;53.126;6.878;2022-12-08T15:40:18;4.90;;;2.75;;
52102;SDS011;38101;53.126;6.878;2022-12-08T15:42:48;6.05;;;2.92;;
52102;SDS011;38101;53.126;6.878;2022-12-08T15:45:14;5.13;;;2.60;;
52102;SDS011;38101;53.126;6.878;2022-12-08T15:47:41;3.75;;;2.53;;
52102;SDS011;38101;53.126;6.878;2022-12-08T15:50:15;4.97;;;2.90;;
52102;SDS011;38101;53.126;6.878;2022-12-08T15:52:42;3.90;;;2.58;;
52102;SDS011;38101;53.126;6.878;2022-12-08T15:55:12;5.65;;;2.65;;
52102;SDS011;38101;53.126;6.878;2022-12-08T15:57:42;4.50;;;2.40;;
52102;SDS011;38101;53.126;6.878;2022-12-08T16:02:51;4.57;;;3.00;;
52102;SDS011;38101;53.126;6.878;2022-12-08T16:05:18;7.72;;;3.63;;
52102;SDS011;38101;53.126;6.878;2022-12-08T16:07:44;5.28;;;3.20;;
52102;SDS011;38101;53.126;6.878;2022-12-08T16:10:14;5.07;;;3.00;;
52102;SDS011;38101;53.126;6.878;2022-12-08T16:12:42;5.60;;;3.22;;
52102;SDS011;38101;53.126;6.878;2022-12-08T16:15:27;7.10;;;3.45;;
52102;SDS011;38101;53.126;6.878;2022-12-08T16:17:54;4.72;;;3.00;;
52102;SDS011;38101;53.126;6.878;2022-12-08T16:20:21;8.43;;;3.38;;
52102;SDS011;38101;53.126;6.878;2022-12-08T16:22:47;5.50;;;3.15;;
52102;SDS011;38101;53.126;6.878;2022-12-08T16:25:13;7.07;;;3.42;;
52102;SDS011;38101;53.126;6.878;2022-12-08T16:27:39;14.35;;;9.45;;
52102;SDS011;38101;53.126;6.878;2022-12-08T16:30:06;10.13;;;6.88;;
52102;SDS011;38101;53.126;6.878;2022-12-08T16:32:36;12.60;;;8.68;;
52102;SDS011;38101;53.126;6.878;2022-12-08T16:35:02;10.80;;;6.65;;
52102;SDS011;38101;53.126;6.878;2022-12-08T16:37:28;9.27;;;6.00;;
52102;SDS011;38101;53.126;6.878;2022-12-08T16:39:54;9.50;;;6.00;;
52102;SDS011;38101;53.126;6.878;2022-12-08T16:42:22;11.02;;;7.85;;
52102;SDS011;38101;53.126;6.878;2022-12-08T16:50:06;9.20;;;5.72;;
52102;SDS011;38101;53.126;6.878;2022-12-08T16:52:42;5.78;;;4.10;;
52102;SDS011;38101;53.126;6.878;2022-12-08T16:55:09;6.60;;;4.40;;
52102;SDS011;38101;53.126;6.878;2022-12-08T16:57:36;5.45;;;3.75;;
52102;SDS011;38101;53.126;6.878;2022-12-08T17:00:04;6.05;;;4.32;;
52102;SDS011;38101;53.126;6.878;2022-12-08T17:02:31;7.70;;;4.00;;